createdAt,value
2022-09-11T00:01:00.284Z,1.08
2022-09-11T00:03:29.989Z,0.93
2022-09-11T00:05:57.998Z,1.20
2022-09-11T00:08:26.993Z,1.27
2022-09-11T00:10:57.022Z,1.37
2022-09-11T00:13:25.028Z,1.30
2022-09-11T00:15:53.436Z,1.08
2022-09-11T00:18:22.324Z,1.73
2022-09-11T00:20:51.008Z,0.90
2022-09-11T00:23:19.536Z,1.00
2022-09-11T00:25:47.893Z,1.33
2022-09-11T00:28:19.790Z,1.00
2022-09-11T00:30:48.503Z,0.73
2022-09-11T00:33:17.111Z,1.08
2022-09-11T00:35:45.092Z,1.33
2022-09-11T00:38:17.264Z,1.80
2022-09-11T00:40:46.520Z,1.20
2022-09-11T00:43:16.597Z,1.40
2022-09-11T00:45:47.164Z,0.90
2022-09-11T00:48:17.966Z,0.88
2022-09-11T00:50:45.794Z,0.73
2022-09-11T00:53:16.022Z,1.03
2022-09-11T00:55:48.204Z,1.10
2022-09-11T00:58:18.085Z,1.20
2022-09-11T01:00:47.918Z,1.23
2022-09-11T01:03:15.723Z,1.30
2022-09-11T01:05:44.468Z,1.65
2022-09-11T01:08:12.951Z,1.20
2022-09-11T01:10:56.336Z,1.23
2022-09-11T01:13:29.005Z,1.10
2022-09-11T01:16:04.279Z,0.63
2022-09-11T01:18:35.794Z,1.50
2022-09-11T01:21:14.959Z,1.00
2022-09-11T01:23:55.051Z,1.50
2022-09-11T01:26:39.762Z,1.20
2022-09-11T01:29:15.945Z,0.57
2022-09-11T01:31:48.413Z,1.00
2022-09-11T01:34:20.812Z,1.13
2022-09-11T01:36:53.711Z,0.60
2022-09-11T01:39:23.395Z,0.70
2022-09-11T01:41:54.162Z,0.90
2022-09-11T01:44:28.776Z,0.70
2022-09-11T01:46:57.002Z,0.75
2022-09-11T01:49:28.589Z,0.73
2022-09-11T01:52:01.592Z,1.30
2022-09-11T01:54:32.930Z,0.77
2022-09-11T01:57:04.670Z,1.50
2022-09-11T01:59:38.625Z,1.57
2022-09-11T02:02:09.483Z,1.15
2022-09-11T02:04:40.947Z,1.13
2022-09-11T02:07:12.677Z,0.98
2022-09-11T02:09:43.303Z,1.57
2022-09-11T02:12:12.837Z,0.50
2022-09-11T02:14:44.207Z,1.23
2022-09-11T02:17:16.936Z,0.90
2022-09-11T02:19:44.794Z,0.88
2022-09-11T02:22:12.622Z,1.10
2022-09-11T02:24:40.368Z,1.88
2022-09-11T02:27:11.534Z,1.08
2022-09-11T02:29:40.130Z,1.30
2022-09-11T02:32:11.145Z,1.45
2022-09-11T02:34:40.382Z,1.00
2022-09-11T02:37:26.646Z,1.33
2022-09-11T02:40:09.143Z,0.77
2022-09-11T02:42:46.209Z,1.48
2022-09-11T02:45:23.410Z,0.68
2022-09-11T02:47:59.645Z,1.10
2022-09-11T02:50:33.807Z,1.27
2022-09-11T02:53:05.752Z,0.70
2022-09-11T02:55:41.568Z,1.25
2022-09-11T02:58:13.109Z,1.00
2022-09-11T03:00:41.351Z,1.30
2022-09-11T03:03:10.988Z,1.13
2022-09-11T03:05:40.261Z,1.00
2022-09-11T03:08:08.624Z,0.60
2022-09-11T03:10:38.522Z,0.77
2022-09-11T03:13:09.986Z,1.33
2022-09-11T03:15:37.729Z,1.40
2022-09-11T03:18:05.720Z,1.20
2022-09-11T03:20:34.928Z,0.68
2022-09-11T03:23:07.900Z,1.52
2022-09-11T03:25:35.631Z,1.08
2022-09-11T03:28:05.118Z,1.27
2022-09-11T03:30:34.962Z,1.20
2022-09-11T03:33:02.812Z,0.68
2022-09-11T03:35:30.496Z,1.35
2022-09-11T03:38:00.378Z,1.00
2022-09-11T03:40:28.340Z,0.88
2022-09-11T03:42:56.097Z,1.23
2022-09-11T03:45:23.961Z,0.90
2022-09-11T03:47:51.730Z,0.82
2022-09-11T03:50:19.518Z,1.20
2022-09-11T03:52:48.134Z,1.15
2022-09-11T03:55:17.553Z,1.27
2022-09-11T03:57:45.444Z,1.25
2022-09-11T04:00:13.623Z,1.10
2022-09-11T04:02:53.818Z,1.40
2022-09-11T04:05:38.040Z,1.30
2022-09-11T04:08:06.883Z,1.15
2022-09-11T04:10:39.057Z,0.80
2022-09-11T04:13:08.326Z,2.97
2022-09-11T04:15:36.249Z,2.22
2022-09-11T04:18:07.045Z,2.15
2022-09-11T04:20:35.654Z,3.03
2022-09-11T04:23:03.449Z,1.73
2022-09-11T04:25:32.363Z,2.65
2022-09-11T04:28:02.546Z,2.30
2022-09-11T04:30:30.338Z,2.67
2022-09-11T04:32:58.970Z,1.95
2022-09-11T04:35:27.097Z,1.95
2022-09-11T04:37:57.756Z,1.60
2022-09-11T04:40:25.657Z,2.90
2022-09-11T04:42:54.076Z,2.15
2022-09-11T04:45:23.890Z,2.90
2022-09-11T04:47:53.222Z,2.30
2022-09-11T04:50:21.908Z,2.00
2022-09-11T04:53:08.314Z,3.05
2022-09-11T04:55:36.452Z,3.53
2022-09-11T04:58:04.192Z,2.60
2022-09-11T05:00:35.220Z,2.90
2022-09-11T05:03:03.041Z,2.83
2022-09-11T05:05:30.815Z,3.08
2022-09-11T05:07:59.053Z,1.70
2022-09-11T05:10:27.219Z,2.28
2022-09-11T05:12:56.213Z,2.63
2022-09-11T05:15:26.028Z,2.92
2022-09-11T05:17:55.201Z,2.63
2022-09-11T05:20:23.092Z,2.17
2022-09-11T05:22:51.540Z,2.85
2022-09-11T05:25:19.434Z,2.05
2022-09-11T05:27:47.969Z,3.00
2022-09-11T05:30:15.932Z,2.67
2022-09-11T05:32:44.209Z,2.22
2022-09-11T05:35:14.052Z,2.90
2022-09-11T05:37:41.780Z,3.23
2022-09-11T05:40:12.472Z,2.92
2022-09-11T05:42:40.678Z,1.80
2022-09-11T05:45:09.447Z,2.20
2022-09-11T05:47:37.840Z,1.77
2022-09-11T05:50:06.014Z,2.60
2022-09-11T05:52:35.713Z,2.20
2022-09-11T05:55:04.121Z,1.15
2022-09-11T05:57:32.912Z,1.75
2022-09-11T06:00:00.752Z,2.17
2022-09-11T06:02:30.980Z,3.40
2022-09-11T06:04:58.770Z,2.72
2022-09-11T06:07:27.009Z,1.85
2022-09-11T06:10:02.307Z,2.20
2022-09-11T06:12:31.658Z,1.47
2022-09-11T06:15:00.124Z,1.60
2022-09-11T06:17:28.313Z,2.65
2022-09-11T06:19:56.172Z,3.20
2022-09-11T06:22:23.926Z,2.97
2022-09-11T06:24:53.875Z,3.72
2022-09-11T06:27:23.000Z,2.65
2022-09-11T06:29:51.533Z,2.95
2022-09-11T06:32:21.273Z,3.53
2022-09-11T06:34:49.155Z,2.85
2022-09-11T06:37:16.967Z,3.83
2022-09-11T06:39:44.826Z,2.23
2022-09-11T06:42:19.251Z,3.00
2022-09-11T06:44:51.353Z,3.63
2022-09-11T06:47:20.714Z,3.90
2022-09-11T06:49:49.536Z,2.65
2022-09-11T06:52:54.014Z,2.93
2022-09-11T06:55:25.133Z,2.50
2022-09-11T06:57:58.656Z,3.63
2022-09-11T07:00:31.103Z,2.60
2022-09-11T07:02:59.110Z,3.97
2022-09-11T07:05:27.372Z,2.30
2022-09-11T07:07:57.079Z,3.83
2022-09-11T07:10:28.213Z,3.78
2022-09-11T07:12:59.510Z,2.47
2022-09-11T07:15:27.290Z,3.92
2022-09-11T07:17:56.430Z,4.00
2022-09-11T07:20:25.545Z,3.38
2022-09-11T07:22:53.725Z,2.92
2022-09-11T07:25:22.215Z,3.00
2022-09-11T07:27:51.873Z,2.35
2022-09-11T07:30:20.746Z,3.85
2022-09-11T07:32:52.245Z,3.33
2022-09-11T07:35:22.176Z,3.30
2022-09-11T07:37:53.013Z,2.70
2022-09-11T07:40:25.462Z,2.63
2022-09-11T07:42:53.224Z,2.60
2022-09-11T07:45:22.869Z,2.58
2022-09-11T07:47:51.158Z,2.70
2022-09-11T07:50:19.261Z,2.63
2022-09-11T07:52:48.427Z,2.20
2022-09-11T07:55:16.526Z,2.45
2022-09-11T07:57:45.480Z,2.78
2022-09-11T08:00:16.477Z,2.13
2022-09-11T08:02:56.583Z,2.80
2022-09-11T08:05:31.222Z,2.78
2022-09-11T08:08:00.873Z,3.55
2022-09-11T08:10:30.387Z,2.70
2022-09-11T08:13:00.240Z,2.80
2022-09-11T08:15:33.139Z,3.28
2022-09-11T08:18:03.037Z,2.97
2022-09-11T08:20:32.092Z,3.73
2022-09-11T08:23:01.587Z,3.95
2022-09-11T08:25:29.754Z,4.00
2022-09-11T08:27:59.618Z,3.95
2022-09-11T08:30:27.834Z,2.53
2022-09-11T08:32:55.924Z,2.80
2022-09-11T08:35:23.701Z,2.78
2022-09-11T08:37:54.849Z,2.45
2022-09-11T08:40:24.382Z,3.13
2022-09-11T08:42:53.276Z,1.70
2022-09-11T08:45:22.293Z,3.40
2022-09-11T08:47:53.095Z,2.53
2022-09-11T08:50:24.305Z,2.80
2022-09-11T08:52:54.154Z,3.03
2022-09-11T08:55:29.999Z,2.25
2022-09-11T08:58:03.389Z,1.42
2022-09-11T09:00:34.585Z,2.00
2022-09-11T09:03:22.200Z,2.17
2022-09-11T09:05:55.747Z,40.67
2022-09-11T09:08:44.057Z,44.83
2022-09-11T09:11:21.866Z,48.22
2022-09-11T09:14:02.717Z,45.33
2022-09-11T09:16:40.169Z,45.47
2022-09-11T09:19:14.143Z,42.60
2022-09-11T09:21:45.243Z,46.88
2022-09-11T09:24:19.294Z,49.17
2022-09-11T09:26:53.664Z,45.28
2022-09-11T09:29:23.830Z,47.70
2022-09-11T09:31:53.296Z,45.08
2022-09-11T09:34:23.835Z,47.42
2022-09-11T09:36:57.975Z,44.92
2022-09-11T09:39:26.272Z,48.92
2022-09-11T09:42:28.241Z,47.10
2022-09-11T09:45:09.388Z,48.22
2022-09-11T09:47:41.177Z,46.85
2022-09-11T09:50:19.629Z,51.10
2022-09-11T09:52:48.810Z,49.10
2022-09-11T09:55:18.490Z,50.37
2022-09-11T09:57:48.191Z,48.83
2022-09-11T10:00:19.783Z,42.88
2022-09-11T10:02:53.602Z,45.42
2022-09-11T10:05:26.363Z,48.20
2022-09-11T10:07:56.763Z,46.13
2022-09-11T10:10:29.919Z,42.50
2022-09-11T10:13:18.080Z,35.85
2022-09-11T10:15:49.676Z,35.58
2022-09-11T10:18:40.067Z,31.25
2022-09-11T10:21:26.168Z,29.20
2022-09-11T10:23:55.697Z,28.47
2022-09-11T10:26:27.806Z,30.30
2022-09-11T10:29:00.906Z,29.77
2022-09-11T10:31:30.153Z,28.58
2022-09-11T10:33:59.468Z,25.40
2022-09-11T10:36:28.604Z,27.38
2022-09-11T10:38:57.345Z,24.47
2022-09-11T10:41:26.168Z,24.65
2022-09-11T10:43:58.811Z,24.13
2022-09-11T10:46:41.109Z,24.73
2022-09-11T10:49:17.342Z,25.27
2022-09-11T10:51:59.462Z,25.55
2022-09-11T10:54:35.865Z,25.27
2022-09-11T10:57:09.020Z,24.73
2022-09-11T10:59:46.034Z,26.73
2022-09-11T11:02:22.110Z,25.48
2022-09-11T11:04:50.040Z,25.15
2022-09-11T11:07:36.265Z,25.45
2022-09-11T11:10:14.309Z,23.67
2022-09-11T11:12:51.661Z,22.88
2022-09-11T11:15:32.111Z,25.25
2022-09-11T11:18:20.109Z,25.02
2022-09-11T11:20:55.366Z,24.25
2022-09-11T11:23:33.304Z,24.77
2022-09-11T11:26:11.735Z,24.75
2022-09-11T11:28:55.254Z,25.98
2022-09-11T11:31:34.222Z,24.60
2022-09-11T11:34:12.430Z,25.98
2022-09-11T11:36:42.573Z,26.88
2022-09-11T11:39:19.966Z,25.60
2022-09-11T11:41:51.536Z,26.00
2022-09-11T11:44:26.828Z,25.10
2022-09-11T11:46:58.278Z,24.50
2022-09-11T11:49:41.545Z,27.45
2022-09-11T11:52:20.589Z,27.25
2022-09-11T11:54:53.206Z,29.63
2022-09-11T11:57:23.257Z,29.40
2022-09-11T11:59:57.111Z,27.95
2022-09-11T12:02:31.054Z,27.02
2022-09-11T12:05:02.068Z,26.67
2022-09-11T12:07:31.162Z,28.60
2022-09-11T12:09:59.786Z,28.95
2022-09-11T12:12:30.352Z,27.53
2022-09-11T12:15:03.534Z,25.97
2022-09-11T12:17:34.322Z,25.45
2022-09-11T12:20:25.961Z,25.85
2022-09-11T12:22:53.685Z,26.02
2022-09-11T12:25:53.631Z,24.83
2022-09-11T12:28:23.406Z,23.90
2022-09-11T12:31:01.359Z,24.08
2022-09-11T12:33:54.500Z,23.52
2022-09-11T12:36:33.819Z,23.55
2022-09-11T12:39:04.442Z,22.35
2022-09-11T12:41:34.320Z,21.35
2022-09-11T12:44:02.728Z,20.33
2022-09-11T12:47:16.582Z,19.17
2022-09-11T12:49:54.231Z,19.23
2022-09-11T12:52:29.036Z,18.45
2022-09-11T12:54:56.789Z,16.98
2022-09-11T12:57:29.337Z,16.25
2022-09-11T13:00:00.046Z,15.85
2022-09-11T13:02:35.451Z,14.10
2022-09-11T13:05:05.554Z,15.48
2022-09-11T13:07:41.457Z,13.82
2022-09-11T13:10:30.451Z,14.07
2022-09-11T13:13:00.353Z,13.32
2022-09-11T13:15:41.154Z,14.10
2022-09-11T13:18:25.043Z,12.60
2022-09-11T13:21:02.052Z,12.23
2022-09-11T13:23:29.873Z,12.03
2022-09-11T13:25:58.103Z,12.13
2022-09-11T13:28:27.591Z,11.80
2022-09-11T13:31:00.468Z,11.30
2022-09-11T13:33:29.817Z,10.88
2022-09-11T13:36:02.564Z,9.87
2022-09-11T13:38:32.391Z,11.38
2022-09-11T13:41:04.005Z,11.27
2022-09-11T13:43:35.745Z,11.20
2022-09-11T13:46:21.104Z,11.18
2022-09-11T13:48:50.786Z,10.32
2022-09-11T13:51:21.951Z,10.02
2022-09-11T13:53:57.644Z,10.47
2022-09-11T13:56:47.410Z,10.02
2022-09-11T13:59:45.489Z,9.20
2022-09-11T14:02:49.482Z,9.98
2022-09-11T14:05:21.135Z,9.00
2022-09-11T14:08:04.010Z,9.15
2022-09-11T14:10:33.161Z,8.88
2022-09-11T14:13:05.610Z,9.70
2022-09-11T14:15:39.926Z,8.05
2022-09-11T14:18:17.108Z,7.05
2022-09-11T14:20:46.114Z,8.00
2022-09-11T14:23:20.093Z,7.45
2022-09-11T14:26:07.668Z,7.15
2022-09-11T14:28:37.947Z,6.90
2022-09-11T14:31:07.588Z,6.70
2022-09-11T14:33:35.653Z,7.15
2022-09-11T14:36:07.849Z,6.65
2022-09-11T14:38:38.775Z,7.28
2022-09-11T14:41:07.601Z,6.75
2022-09-11T14:43:36.545Z,7.15
2022-09-11T14:46:04.765Z,7.60
2022-09-11T14:48:34.796Z,7.50
2022-09-11T14:51:09.923Z,8.25
2022-09-11T14:53:43.388Z,8.48
2022-09-11T14:56:11.440Z,9.45
2022-09-11T14:58:39.214Z,8.60
2022-09-11T15:01:07.256Z,8.48
2022-09-11T15:03:35.134Z,8.90
2022-09-11T15:06:02.935Z,8.70
2022-09-11T15:08:30.666Z,8.30
2022-09-11T15:10:59.750Z,7.53
2022-09-11T15:13:27.686Z,7.75
2022-09-11T15:15:56.062Z,7.28
2022-09-11T15:18:23.880Z,7.90
2022-09-11T15:20:51.648Z,7.87
2022-09-11T15:23:19.362Z,7.97
2022-09-11T15:25:47.305Z,7.35
2022-09-11T15:28:16.457Z,7.18
2022-09-11T15:30:44.673Z,7.35
2022-09-11T15:33:12.472Z,7.15
2022-09-11T15:35:40.740Z,6.68
2022-09-11T15:38:09.848Z,7.18
2022-09-11T15:40:37.649Z,7.33
2022-09-11T15:43:05.397Z,8.18
2022-09-11T15:45:34.538Z,9.10
2022-09-11T15:48:02.870Z,9.90
2022-09-11T15:50:30.602Z,8.63
2022-09-11T15:52:58.668Z,8.45
2022-09-11T15:55:27.252Z,7.95
2022-09-11T15:57:54.957Z,7.57
2022-09-11T16:00:22.702Z,7.60
2022-09-11T16:02:53.507Z,7.07
2022-09-11T16:05:23.059Z,7.60
2022-09-11T16:07:50.776Z,7.53
2022-09-11T16:10:19.705Z,7.53
2022-09-11T16:12:47.918Z,7.68
2022-09-11T16:15:15.805Z,7.88
2022-09-11T16:17:43.706Z,7.28
2022-09-11T16:20:15.228Z,6.93
2022-09-11T16:22:42.994Z,7.13
2022-09-11T16:25:10.856Z,6.88
2022-09-11T16:27:38.717Z,7.90
2022-09-11T16:32:55.311Z,7.35
2022-09-11T16:35:26.082Z,6.93
2022-09-11T16:37:54.558Z,7.22
2022-09-11T16:40:22.242Z,7.18
2022-09-11T16:42:49.916Z,7.40
2022-09-11T16:45:17.739Z,7.38
2022-09-11T16:47:45.418Z,7.00
2022-09-11T16:50:13.416Z,6.20
2022-09-11T16:52:42.398Z,6.60
2022-09-11T16:55:10.759Z,7.43
2022-09-11T16:57:38.769Z,6.25
2022-09-11T17:00:07.986Z,6.70
2022-09-11T17:02:36.841Z,6.35
2022-09-11T17:05:05.116Z,6.47
2022-09-11T17:07:32.894Z,5.90
2022-09-11T17:10:02.070Z,6.32
2022-09-11T17:12:29.793Z,6.57
2022-09-11T17:14:57.536Z,6.25
2022-09-11T17:17:25.310Z,5.93
2022-09-11T17:19:53.694Z,6.20
2022-09-11T17:22:21.419Z,7.25
2022-09-11T17:24:49.145Z,7.30
2022-09-11T17:27:18.269Z,7.80
2022-09-11T17:29:47.293Z,7.25
2022-09-11T17:32:31.170Z,6.95
2022-09-11T17:34:59.719Z,7.00
2022-09-11T17:37:27.800Z,7.32
2022-09-11T17:39:55.854Z,7.22
2022-09-11T17:42:25.366Z,10.57
2022-09-11T17:44:53.374Z,8.73
2022-09-11T17:47:21.189Z,8.52
2022-09-11T17:49:50.115Z,8.38
2022-09-11T17:52:19.031Z,8.20
2022-09-11T17:54:46.964Z,8.18
2022-09-11T17:57:15.533Z,8.77
2022-09-11T17:59:44.678Z,8.67
2022-09-11T18:02:13.817Z,8.40
2022-09-11T18:04:41.554Z,8.63
2022-09-11T18:07:09.174Z,8.67
2022-09-11T18:09:37.126Z,8.55
2022-09-11T18:12:05.126Z,8.40
2022-09-11T18:14:32.938Z,8.77
2022-09-11T18:17:02.094Z,9.00
2022-09-11T18:19:30.198Z,9.35
2022-09-11T18:21:59.056Z,10.60
2022-09-11T18:24:29.962Z,10.60
2022-09-11T18:27:00.863Z,9.85
2022-09-11T18:29:30.307Z,10.48
2022-09-11T18:31:59.905Z,10.60
2022-09-11T18:34:31.073Z,10.35
2022-09-11T18:36:59.926Z,10.70
2022-09-11T18:39:27.925Z,10.40
2022-09-11T18:41:56.121Z,10.10
2022-09-11T18:44:25.104Z,10.13
2022-09-11T18:46:53.978Z,10.70
2022-09-11T18:49:22.363Z,10.02
2022-09-11T18:51:51.861Z,10.10
2022-09-11T18:54:21.204Z,9.67
2022-09-11T18:56:50.139Z,9.07
2022-09-11T18:59:17.978Z,10.00
2022-09-11T19:01:45.842Z,10.07
2022-09-11T19:04:14.169Z,10.30
2022-09-11T19:06:41.970Z,11.20
2022-09-11T19:09:12.647Z,11.07
2022-09-11T19:11:41.134Z,10.98
2022-09-11T19:14:10.462Z,11.03
2022-09-11T19:16:39.373Z,12.43
2022-09-11T19:19:08.038Z,12.38
2022-09-11T19:21:36.990Z,11.67
2022-09-11T19:24:05.158Z,11.23
2022-09-11T19:26:37.395Z,11.43
2022-09-11T19:29:05.638Z,11.07
2022-09-11T19:31:34.042Z,11.63
2022-09-11T19:34:02.548Z,12.10
2022-09-11T19:36:31.848Z,11.45
2022-09-11T19:39:00.822Z,12.88
2022-09-11T19:41:30.665Z,11.95
2022-09-11T19:44:01.502Z,11.52
2022-09-11T19:46:31.355Z,12.57
2022-09-11T19:49:00.943Z,15.50
2022-09-11T19:51:30.501Z,13.85
2022-09-11T19:54:00.425Z,12.90
2022-09-11T19:56:29.240Z,13.18
2022-09-11T19:58:57.027Z,13.00
2022-09-11T20:01:27.371Z,12.52
2022-09-11T20:03:56.381Z,12.57
2022-09-11T20:06:26.201Z,13.32
2022-09-11T20:09:13.339Z,13.38
2022-09-11T20:11:42.872Z,12.73
2022-09-11T20:14:10.854Z,12.77
2022-09-11T20:16:39.982Z,12.60
2022-09-11T20:19:09.287Z,14.40
2022-09-11T20:21:37.128Z,13.65
2022-09-11T20:24:06.217Z,12.95
2022-09-11T20:26:34.205Z,12.57
2022-09-11T20:29:03.895Z,13.10
2022-09-11T20:31:36.232Z,13.57
2022-09-11T20:34:08.408Z,13.48
2022-09-11T20:36:36.910Z,13.88
2022-09-11T20:39:05.059Z,13.40
2022-09-11T20:41:33.293Z,13.85
2022-09-11T20:44:04.545Z,14.20
2022-09-11T20:46:32.381Z,13.85
2022-09-11T20:49:00.808Z,14.70
2022-09-11T20:51:30.067Z,15.75
2022-09-11T20:53:57.843Z,15.95
2022-09-11T20:56:25.606Z,15.05
2022-09-11T20:58:53.623Z,15.25
2022-09-11T21:01:23.044Z,15.13
2022-09-11T21:03:52.049Z,15.65
2022-09-11T21:06:25.384Z,14.87
2022-09-11T21:08:56.777Z,14.32
2022-09-11T21:11:24.749Z,16.27
2022-09-11T21:13:52.584Z,16.47
2022-09-11T21:16:20.582Z,16.08
2022-09-11T21:18:50.145Z,16.65
2022-09-11T21:21:18.696Z,16.88
2022-09-11T21:23:46.631Z,16.53
2022-09-11T21:26:17.264Z,16.52
2022-09-11T21:28:45.050Z,16.33
2022-09-11T21:31:13.122Z,16.08
2022-09-11T21:33:41.138Z,16.40
2022-09-11T21:36:09.085Z,16.73
2022-09-11T21:38:37.640Z,16.40
2022-09-11T21:41:07.965Z,15.27
2022-09-11T21:43:37.554Z,15.90
2022-09-11T21:46:07.224Z,15.88
2022-09-11T21:48:36.069Z,16.30
2022-09-11T21:51:07.888Z,16.10
2022-09-11T21:53:35.647Z,15.40
2022-09-11T21:56:03.878Z,16.17
2022-09-11T21:58:31.806Z,15.77
2022-09-11T22:01:06.037Z,15.55
2022-09-11T22:03:34.394Z,15.00
2022-09-11T22:06:06.490Z,16.17
2022-09-11T22:08:35.235Z,14.80
2022-09-11T22:11:04.140Z,15.33
2022-09-11T22:13:32.413Z,15.55
2022-09-11T22:16:00.704Z,14.95
2022-09-11T22:18:29.946Z,15.05
2022-09-11T22:21:01.127Z,15.38
2022-09-11T22:23:29.754Z,14.98
2022-09-11T22:26:01.042Z,15.35
2022-09-11T22:28:29.138Z,15.55
2022-09-11T22:30:57.038Z,15.32
2022-09-11T22:33:25.365Z,15.13
2022-09-11T22:35:54.452Z,14.73
2022-09-11T22:38:22.179Z,14.30
2022-09-11T22:40:53.895Z,14.13
2022-09-11T22:43:21.666Z,13.70
2022-09-11T22:45:52.800Z,13.95
2022-09-11T22:48:20.597Z,14.57
2022-09-11T22:50:48.661Z,14.77
2022-09-11T22:53:17.928Z,15.50
2022-09-11T22:55:45.837Z,14.27
2022-09-11T22:58:14.056Z,13.93
2022-09-11T23:00:42.675Z,14.50
2022-09-11T23:03:10.541Z,13.82
2022-09-11T23:05:55.674Z,13.50
2022-09-11T23:08:28.312Z,14.23
2022-09-11T23:10:59.313Z,15.15
2022-09-11T23:13:27.252Z,14.77
2022-09-11T23:15:57.394Z,14.55
2022-09-11T23:18:25.678Z,14.50
2022-09-11T23:20:54.649Z,15.27
2022-09-11T23:23:23.765Z,14.83
2022-09-11T23:25:52.108Z,14.33
2022-09-11T23:28:20.010Z,13.47
2022-09-11T23:30:47.769Z,13.98
2022-09-11T23:33:15.611Z,14.20
2022-09-11T23:35:43.317Z,15.17
2022-09-11T23:38:11.353Z,14.95
2022-09-11T23:40:40.449Z,14.77
2022-09-11T23:43:08.157Z,14.63
2022-09-11T23:45:35.977Z,13.88
2022-09-11T23:48:04.438Z,14.80
2022-09-11T23:50:32.670Z,13.75
2022-09-11T23:53:00.446Z,13.75
2022-09-11T23:55:28.159Z,13.50
2022-09-11T23:57:57.358Z,14.00
